sensor_id;sensor_type;location;lat;lon;timestamp;P1;durP1;ratioP1;P2;durP2;ratioP2
43152;SDS011;28756;49.064;9.290;2023-04-23T00:01:04;5.72;;;4.20;;
43152;SDS011;28756;49.064;9.290;2023-04-23T00:03:32;7.85;;;4.20;;
43152;SDS011;28756;49.064;9.290;2023-04-23T00:06:03;6.35;;;4.75;;
43152;SDS011;28756;49.064;9.290;2023-04-23T00:08:32;5.22;;;3.83;;
43152;SDS011;28756;49.064;9.290;2023-04-23T00:10:58;5.03;;;3.63;;
43152;SDS011;28756;49.064;9.290;2023-04-23T00:13:24;5.30;;;3.33;;
43152;SDS011;28756;49.064;9.290;2023-04-23T00:15:50;3.47;;;2.80;;
43152;SDS011;28756;49.064;9.290;2023-04-23T00:18:16;2.70;;;2.40;;
43152;SDS011;28756;49.064;9.290;2023-04-23T00:20:43;2.33;;;2.13;;
43152;SDS011;28756;49.064;9.290;2023-04-23T00:23:09;3.17;;;2.10;;
43152;SDS011;28756;49.064;9.290;2023-04-23T00:25:35;2.78;;;1.80;;
43152;SDS011;28756;49.064;9.290;2023-04-23T00:28:00;3.25;;;1.98;;
43152;SDS011;28756;49.064;9.290;2023-04-23T00:30:27;3.00;;;2.25;;
43152;SDS011;28756;49.064;9.290;2023-04-23T00:32:52;4.75;;;2.88;;
43152;SDS011;28756;49.064;9.290;2023-04-23T00:35:18;3.10;;;2.38;;
43152;SDS011;28756;49.064;9.290;2023-04-23T00:37:44;3.92;;;3.17;;
43152;SDS011;28756;49.064;9.290;2023-04-23T00:40:10;3.28;;;2.67;;
43152;SDS011;28756;49.064;9.290;2023-04-23T00:42:37;3.38;;;2.60;;
43152;SDS011;28756;49.064;9.290;2023-04-23T00:45:04;3.30;;;2.53;;
43152;SDS011;28756;49.064;9.290;2023-04-23T00:47:35;3.17;;;2.85;;
43152;SDS011;28756;49.064;9.290;2023-04-23T00:50:01;3.00;;;2.55;;
43152;SDS011;28756;49.064;9.290;2023-04-23T00:52:27;3.10;;;2.60;;
43152;SDS011;28756;49.064;9.290;2023-04-23T00:54:53;2.72;;;2.53;;
43152;SDS011;28756;49.064;9.290;2023-04-23T00:57:20;4.63;;;2.47;;
43152;SDS011;28756;49.064;9.290;2023-04-23T00:59:47;3.58;;;2.45;;
43152;SDS011;28756;49.064;9.290;2023-04-23T01:02:13;4.03;;;2.80;;
43152;SDS011;28756;49.064;9.290;2023-04-23T01:04:40;5.32;;;2.72;;
43152;SDS011;28756;49.064;9.290;2023-04-23T01:07:09;4.07;;;2.42;;
43152;SDS011;28756;49.064;9.290;2023-04-23T01:09:36;4.05;;;2.80;;
43152;SDS011;28756;49.064;9.290;2023-04-23T01:12:04;3.38;;;2.35;;
43152;SDS011;28756;49.064;9.290;2023-04-23T01:14:30;3.83;;;2.58;;
43152;SDS011;28756;49.064;9.290;2023-04-23T01:16:57;3.65;;;2.75;;
43152;SDS011;28756;49.064;9.290;2023-04-23T01:19:23;3.00;;;2.35;;
43152;SDS011;28756;49.064;9.290;2023-04-23T01:21:49;4.05;;;2.60;;
43152;SDS011;28756;49.064;9.290;2023-04-23T01:24:15;4.13;;;2.97;;
43152;SDS011;28756;49.064;9.290;2023-04-23T01:26:41;4.18;;;2.53;;
43152;SDS011;28756;49.064;9.290;2023-04-23T01:29:08;4.28;;;2.78;;
43152;SDS011;28756;49.064;9.290;2023-04-23T01:31:35;5.22;;;2.80;;
43152;SDS011;28756;49.064;9.290;2023-04-23T01:34:01;4.68;;;2.75;;
43152;SDS011;28756;49.064;9.290;2023-04-23T01:36:27;3.10;;;2.35;;
43152;SDS011;28756;49.064;9.290;2023-04-23T01:38:55;3.90;;;2.50;;
43152;SDS011;28756;49.064;9.290;2023-04-23T01:41:21;3.72;;;2.88;;
43152;SDS011;28756;49.064;9.290;2023-04-23T01:43:47;4.20;;;2.20;;
43152;SDS011;28756;49.064;9.290;2023-04-23T01:46:13;3.88;;;2.50;;
43152;SDS011;28756;49.064;9.290;2023-04-23T01:48:38;4.25;;;2.90;;
43152;SDS011;28756;49.064;9.290;2023-04-23T01:51:05;3.20;;;2.50;;
43152;SDS011;28756;49.064;9.290;2023-04-23T01:53:31;3.80;;;2.70;;
43152;SDS011;28756;49.064;9.290;2023-04-23T01:55:56;3.97;;;2.67;;
43152;SDS011;28756;49.064;9.290;2023-04-23T01:58:24;3.78;;;2.67;;
43152;SDS011;28756;49.064;9.290;2023-04-23T02:00:50;4.65;;;2.60;;
43152;SDS011;28756;49.064;9.290;2023-04-23T02:03:16;3.22;;;2.35;;
43152;SDS011;28756;49.064;9.290;2023-04-23T02:05:42;2.80;;;2.35;;
43152;SDS011;28756;49.064;9.290;2023-04-23T02:08:09;3.20;;;2.33;;
43152;SDS011;28756;49.064;9.290;2023-04-23T02:10:35;2.40;;;2.20;;
43152;SDS011;28756;49.064;9.290;2023-04-23T02:13:01;3.97;;;2.13;;
43152;SDS011;28756;49.064;9.290;2023-04-23T02:15:28;2.50;;;2.13;;
43152;SDS011;28756;49.064;9.290;2023-04-23T02:17:54;3.47;;;2.22;;
43152;SDS011;28756;49.064;9.290;2023-04-23T02:20:20;2.97;;;2.03;;
43152;SDS011;28756;49.064;9.290;2023-04-23T02:22:46;3.47;;;2.20;;
43152;SDS011;28756;49.064;9.290;2023-04-23T02:25:13;3.20;;;2.10;;
43152;SDS011;28756;49.064;9.290;2023-04-23T02:27:41;2.35;;;2.03;;
43152;SDS011;28756;49.064;9.290;2023-04-23T02:30:08;3.00;;;2.15;;
43152;SDS011;28756;49.064;9.290;2023-04-23T02:32:35;3.05;;;2.75;;
43152;SDS011;28756;49.064;9.290;2023-04-23T02:35:02;4.13;;;2.50;;
43152;SDS011;28756;49.064;9.290;2023-04-23T02:37:31;4.50;;;2.47;;
43152;SDS011;28756;49.064;9.290;2023-04-23T02:39:57;2.88;;;2.20;;
43152;SDS011;28756;49.064;9.290;2023-04-23T02:42:22;2.53;;;2.05;;
43152;SDS011;28756;49.064;9.290;2023-04-23T02:44:48;2.35;;;2.03;;
43152;SDS011;28756;49.064;9.290;2023-04-23T02:47:14;2.92;;;2.13;;
43152;SDS011;28756;49.064;9.290;2023-04-23T02:49:40;2.75;;;2.08;;
43152;SDS011;28756;49.064;9.290;2023-04-23T02:52:05;2.60;;;2.08;;
43152;SDS011;28756;49.064;9.290;2023-04-23T02:54:32;1.83;;;1.60;;
43152;SDS011;28756;49.064;9.290;2023-04-23T02:56:58;3.05;;;2.10;;
43152;SDS011;28756;49.064;9.290;2023-04-23T02:59:24;2.78;;;1.83;;
43152;SDS011;28756;49.064;9.290;2023-04-23T03:01:49;2.58;;;1.88;;
43152;SDS011;28756;49.064;9.290;2023-04-23T03:04:16;2.40;;;1.73;;
43152;SDS011;28756;49.064;9.290;2023-04-23T03:06:42;2.20;;;2.00;;
43152;SDS011;28756;49.064;9.290;2023-04-23T03:09:08;3.67;;;2.00;;
43152;SDS011;28756;49.064;9.290;2023-04-23T03:11:34;2.13;;;1.90;;
43152;SDS011;28756;49.064;9.290;2023-04-23T03:14:00;5.07;;;2.00;;
43152;SDS011;28756;49.064;9.290;2023-04-23T03:16:26;1.40;;;1.30;;
43152;SDS011;28756;49.064;9.290;2023-04-23T03:18:53;2.35;;;1.80;;
43152;SDS011;28756;49.064;9.290;2023-04-23T03:21:20;1.92;;;1.63;;
43152;SDS011;28756;49.064;9.290;2023-04-23T03:23:45;2.85;;;1.90;;
43152;SDS011;28756;49.064;9.290;2023-04-23T03:26:11;2.35;;;1.90;;
43152;SDS011;28756;49.064;9.290;2023-04-23T03:28:37;1.90;;;1.60;;
43152;SDS011;28756;49.064;9.290;2023-04-23T03:31:03;2.08;;;1.73;;
43152;SDS011;28756;49.064;9.290;2023-04-23T03:33:29;2.58;;;2.08;;
43152;SDS011;28756;49.064;9.290;2023-04-23T03:35:55;3.22;;;2.08;;
43152;SDS011;28756;49.064;9.290;2023-04-23T03:38:20;3.20;;;2.35;;
43152;SDS011;28756;49.064;9.290;2023-04-23T03:40:46;2.17;;;1.75;;
43152;SDS011;28756;49.064;9.290;2023-04-23T03:43:12;2.45;;;2.25;;
43152;SDS011;28756;49.064;9.290;2023-04-23T03:45:38;2.53;;;2.08;;
43152;SDS011;28756;49.064;9.290;2023-04-23T03:48:03;2.92;;;2.10;;
43152;SDS011;28756;49.064;9.290;2023-04-23T03:50:29;2.88;;;2.08;;
43152;SDS011;28756;49.064;9.290;2023-04-23T03:52:58;2.53;;;1.92;;
43152;SDS011;28756;49.064;9.290;2023-04-23T03:55:24;2.10;;;1.90;;
43152;SDS011;28756;49.064;9.290;2023-04-23T03:57:50;2.55;;;1.70;;
43152;SDS011;28756;49.064;9.290;2023-04-23T04:00:16;2.35;;;1.60;;
43152;SDS011;28756;49.064;9.290;2023-04-23T04:02:42;2.72;;;1.77;;
43152;SDS011;28756;49.064;9.290;2023-04-23T04:05:08;2.53;;;2.10;;
43152;SDS011;28756;49.064;9.290;2023-04-23T04:07:37;2.97;;;2.10;;
43152;SDS011;28756;49.064;9.290;2023-04-23T04:10:04;2.42;;;1.63;;
43152;SDS011;28756;49.064;9.290;2023-04-23T04:12:31;3.08;;;1.80;;
43152;SDS011;28756;49.064;9.290;2023-04-23T04:14:57;3.35;;;2.30;;
43152;SDS011;28756;49.064;9.290;2023-04-23T04:17:23;3.83;;;2.17;;
43152;SDS011;28756;49.064;9.290;2023-04-23T04:19:49;4.22;;;2.10;;
43152;SDS011;28756;49.064;9.290;2023-04-23T04:22:15;3.63;;;2.28;;
43152;SDS011;28756;49.064;9.290;2023-04-23T04:24:41;2.33;;;1.90;;
43152;SDS011;28756;49.064;9.290;2023-04-23T04:27:07;3.97;;;2.22;;
43152;SDS011;28756;49.064;9.290;2023-04-23T04:29:33;2.17;;;1.92;;
43152;SDS011;28756;49.064;9.290;2023-04-23T04:31:59;3.55;;;2.28;;
43152;SDS011;28756;49.064;9.290;2023-04-23T04:34:26;2.00;;;1.80;;
43152;SDS011;28756;49.064;9.290;2023-04-23T04:36:52;2.53;;;2.00;;
43152;SDS011;28756;49.064;9.290;2023-04-23T04:39:18;2.03;;;1.80;;
43152;SDS011;28756;49.064;9.290;2023-04-23T04:41:45;2.50;;;1.80;;
43152;SDS011;28756;49.064;9.290;2023-04-23T04:44:11;2.40;;;1.60;;
43152;SDS011;28756;49.064;9.290;2023-04-23T04:46:38;3.13;;;1.83;;
43152;SDS011;28756;49.064;9.290;2023-04-23T04:49:06;2.28;;;1.80;;
43152;SDS011;28756;49.064;9.290;2023-04-23T04:51:35;4.50;;;2.15;;
43152;SDS011;28756;49.064;9.290;2023-04-23T04:54:02;2.85;;;1.77;;
43152;SDS011;28756;49.064;9.290;2023-04-23T04:56:28;3.17;;;2.00;;
43152;SDS011;28756;49.064;9.290;2023-04-23T04:58:54;2.30;;;2.10;;
43152;SDS011;28756;49.064;9.290;2023-04-23T05:01:20;3.45;;;2.30;;
43152;SDS011;28756;49.064;9.290;2023-04-23T05:03:48;3.08;;;2.25;;
43152;SDS011;28756;49.064;9.290;2023-04-23T05:06:14;3.42;;;2.75;;
43152;SDS011;28756;49.064;9.290;2023-04-23T05:08:40;3.20;;;2.58;;
43152;SDS011;28756;49.064;9.290;2023-04-23T05:11:07;3.10;;;2.80;;
43152;SDS011;28756;49.064;9.290;2023-04-23T05:13:33;3.83;;;2.80;;
43152;SDS011;28756;49.064;9.290;2023-04-23T05:15:59;3.75;;;2.60;;
43152;SDS011;28756;49.064;9.290;2023-04-23T05:18:25;2.42;;;2.03;;
43152;SDS011;28756;49.064;9.290;2023-04-23T05:20:51;2.13;;;1.92;;
43152;SDS011;28756;49.064;9.290;2023-04-23T05:23:16;3.75;;;2.70;;
43152;SDS011;28756;49.064;9.290;2023-04-23T05:25:42;2.83;;;2.22;;
43152;SDS011;28756;49.064;9.290;2023-04-23T05:28:08;4.05;;;2.63;;
43152;SDS011;28756;49.064;9.290;2023-04-23T05:30:34;2.75;;;2.13;;
43152;SDS011;28756;49.064;9.290;2023-04-23T05:33:00;2.60;;;2.13;;
43152;SDS011;28756;49.064;9.290;2023-04-23T05:35:26;2.33;;;2.10;;
43152;SDS011;28756;49.064;9.290;2023-04-23T05:37:51;2.30;;;1.70;;
43152;SDS011;28756;49.064;9.290;2023-04-23T05:40:17;3.58;;;2.00;;
43152;SDS011;28756;49.064;9.290;2023-04-23T05:42:43;2.55;;;1.90;;
43152;SDS011;28756;49.064;9.290;2023-04-23T05:45:09;2.00;;;1.58;;
43152;SDS011;28756;49.064;9.290;2023-04-23T05:47:35;2.83;;;1.58;;
43152;SDS011;28756;49.064;9.290;2023-04-23T05:50:01;2.30;;;1.40;;
43152;SDS011;28756;49.064;9.290;2023-04-23T05:52:27;1.40;;;1.15;;
43152;SDS011;28756;49.064;9.290;2023-04-23T05:54:57;1.70;;;1.20;;
43152;SDS011;28756;49.064;9.290;2023-04-23T05:57:23;2.30;;;1.30;;
43152;SDS011;28756;49.064;9.290;2023-04-23T05:59:48;1.10;;;0.88;;
43152;SDS011;28756;49.064;9.290;2023-04-23T06:02:14;3.45;;;1.30;;
43152;SDS011;28756;49.064;9.290;2023-04-23T06:04:40;1.60;;;1.30;;
43152;SDS011;28756;49.064;9.290;2023-04-23T06:07:06;1.40;;;1.20;;
43152;SDS011;28756;49.064;9.290;2023-04-23T06:09:31;1.85;;;0.80;;
43152;SDS011;28756;49.064;9.290;2023-04-23T06:11:57;1.67;;;1.00;;
43152;SDS011;28756;49.064;9.290;2023-04-23T06:14:23;1.70;;;1.17;;
43152;SDS011;28756;49.064;9.290;2023-04-23T06:16:49;3.80;;;1.20;;
43152;SDS011;28756;49.064;9.290;2023-04-23T06:19:15;2.05;;;1.30;;
43152;SDS011;28756;49.064;9.290;2023-04-23T06:21:40;1.45;;;1.30;;
43152;SDS011;28756;49.064;9.290;2023-04-23T06:24:06;1.45;;;1.20;;
43152;SDS011;28756;49.064;9.290;2023-04-23T06:26:32;2.10;;;1.38;;
43152;SDS011;28756;49.064;9.290;2023-04-23T06:28:58;1.35;;;1.25;;
43152;SDS011;28756;49.064;9.290;2023-04-23T06:31:24;1.13;;;1.02;;
43152;SDS011;28756;49.064;9.290;2023-04-23T06:33:50;1.77;;;1.08;;
43152;SDS011;28756;49.064;9.290;2023-04-23T06:36:15;0.85;;;0.85;;
43152;SDS011;28756;49.064;9.290;2023-04-23T06:38:41;1.10;;;0.90;;
43152;SDS011;28756;49.064;9.290;2023-04-23T06:41:08;0.90;;;0.80;;
43152;SDS011;28756;49.064;9.290;2023-04-23T06:43:35;1.52;;;1.00;;
43152;SDS011;28756;49.064;9.290;2023-04-23T06:46:01;1.60;;;0.80;;
43152;SDS011;28756;49.064;9.290;2023-04-23T06:48:26;1.45;;;0.90;;
43152;SDS011;28756;49.064;9.290;2023-04-23T06:50:52;1.50;;;0.90;;
43152;SDS011;28756;49.064;9.290;2023-04-23T06:53:18;2.30;;;1.10;;
43152;SDS011;28756;49.064;9.290;2023-04-23T06:55:43;2.20;;;1.35;;
43152;SDS011;28756;49.064;9.290;2023-04-23T06:58:09;2.10;;;1.30;;
43152;SDS011;28756;49.064;9.290;2023-04-23T07:00:35;1.20;;;1.10;;
43152;SDS011;28756;49.064;9.290;2023-04-23T07:03:01;1.65;;;1.05;;
43152;SDS011;28756;49.064;9.290;2023-04-23T07:05:27;2.35;;;0.90;;
43152;SDS011;28756;49.064;9.290;2023-04-23T07:07:53;0.90;;;0.90;;
43152;SDS011;28756;49.064;9.290;2023-04-23T07:10:19;0.90;;;0.77;;
43152;SDS011;28756;49.064;9.290;2023-04-23T07:12:45;1.50;;;0.95;;
43152;SDS011;28756;49.064;9.290;2023-04-23T07:15:12;1.33;;;1.00;;
43152;SDS011;28756;49.064;9.290;2023-04-23T07:17:38;1.83;;;1.10;;
43152;SDS011;28756;49.064;9.290;2023-04-23T07:20:04;1.40;;;1.30;;
43152;SDS011;28756;49.064;9.290;2023-04-23T07:22:30;1.20;;;0.98;;
43152;SDS011;28756;49.064;9.290;2023-04-23T07:24:57;1.25;;;1.10;;
43152;SDS011;28756;49.064;9.290;2023-04-23T07:27:23;1.27;;;1.00;;
43152;SDS011;28756;49.064;9.290;2023-04-23T07:29:49;1.35;;;1.13;;
43152;SDS011;28756;49.064;9.290;2023-04-23T07:32:15;2.05;;;1.00;;
43152;SDS011;28756;49.064;9.290;2023-04-23T07:34:41;1.35;;;0.90;;
43152;SDS011;28756;49.064;9.290;2023-04-23T07:37:07;1.05;;;0.98;;
43152;SDS011;28756;49.064;9.290;2023-04-23T07:39:33;1.63;;;1.10;;
43152;SDS011;28756;49.064;9.290;2023-04-23T07:41:59;1.00;;;0.90;;
43152;SDS011;28756;49.064;9.290;2023-04-23T07:44:26;1.05;;;0.85;;
43152;SDS011;28756;49.064;9.290;2023-04-23T07:46:52;1.70;;;1.10;;
43152;SDS011;28756;49.064;9.290;2023-04-23T07:49:18;1.70;;;1.13;;
43152;SDS011;28756;49.064;9.290;2023-04-23T07:51:44;1.30;;;1.10;;
43152;SDS011;28756;49.064;9.290;2023-04-23T07:54:09;2.35;;;1.00;;
43152;SDS011;28756;49.064;9.290;2023-04-23T07:56:35;1.13;;;1.00;;
43152;SDS011;28756;49.064;9.290;2023-04-23T07:59:01;1.17;;;1.00;;
43152;SDS011;28756;49.064;9.290;2023-04-23T08:01:28;1.30;;;0.85;;
43152;SDS011;28756;49.064;9.290;2023-04-23T08:03:54;1.73;;;1.00;;
43152;SDS011;28756;49.064;9.290;2023-04-23T08:06:20;0.82;;;0.80;;
43152;SDS011;28756;49.064;9.290;2023-04-23T08:08:48;1.95;;;0.85;;
43152;SDS011;28756;49.064;9.290;2023-04-23T08:11:14;1.45;;;1.00;;
43152;SDS011;28756;49.064;9.290;2023-04-23T08:13:40;1.00;;;0.80;;
43152;SDS011;28756;49.064;9.290;2023-04-23T08:16:06;0.88;;;0.80;;
43152;SDS011;28756;49.064;9.290;2023-04-23T08:18:32;1.55;;;1.05;;
43152;SDS011;28756;49.064;9.290;2023-04-23T08:20:58;0.77;;;0.70;;
43152;SDS011;28756;49.064;9.290;2023-04-23T08:23:23;1.15;;;0.80;;
43152;SDS011;28756;49.064;9.290;2023-04-23T08:25:49;1.15;;;1.05;;
43152;SDS011;28756;49.064;9.290;2023-04-23T08:28:15;1.90;;;1.02;;
43152;SDS011;28756;49.064;9.290;2023-04-23T08:30:42;1.10;;;1.00;;
43152;SDS011;28756;49.064;9.290;2023-04-23T08:33:08;1.00;;;0.88;;
43152;SDS011;28756;49.064;9.290;2023-04-23T08:35:34;1.00;;;0.90;;
43152;SDS011;28756;49.064;9.290;2023-04-23T08:38:00;1.58;;;0.95;;
43152;SDS011;28756;49.064;9.290;2023-04-23T08:40:26;1.52;;;1.15;;
43152;SDS011;28756;49.064;9.290;2023-04-23T08:45:22;1.20;;;1.10;;
43152;SDS011;28756;49.064;9.290;2023-04-23T08:47:49;1.65;;;1.10;;
43152;SDS011;28756;49.064;9.290;2023-04-23T08:50:15;1.38;;;1.10;;
43152;SDS011;28756;49.064;9.290;2023-04-23T08:52:53;1.42;;;1.00;;
43152;SDS011;28756;49.064;9.290;2023-04-23T08:55:21;1.73;;;1.10;;
43152;SDS011;28756;49.064;9.290;2023-04-23T08:57:47;1.42;;;1.30;;
43152;SDS011;28756;49.064;9.290;2023-04-23T09:00:15;1.63;;;1.10;;
43152;SDS011;28756;49.064;9.290;2023-04-23T09:02:47;1.67;;;0.93;;
43152;SDS011;28756;49.064;9.290;2023-04-23T09:05:13;1.90;;;1.30;;
43152;SDS011;28756;49.064;9.290;2023-04-23T09:07:39;6.15;;;1.38;;
43152;SDS011;28756;49.064;9.290;2023-04-23T09:10:06;1.83;;;1.30;;
43152;SDS011;28756;49.064;9.290;2023-04-23T09:12:36;1.73;;;1.33;;
43152;SDS011;28756;49.064;9.290;2023-04-23T09:15:05;1.40;;;1.23;;
43152;SDS011;28756;49.064;9.290;2023-04-23T09:17:35;1.27;;;1.10;;
43152;SDS011;28756;49.064;9.290;2023-04-23T09:20:05;1.67;;;1.13;;
43152;SDS011;28756;49.064;9.290;2023-04-23T09:22:45;1.70;;;1.40;;
43152;SDS011;28756;49.064;9.290;2023-04-23T09:25:17;1.15;;;0.90;;
43152;SDS011;28756;49.064;9.290;2023-04-23T09:27:45;4.30;;;4.00;;
43152;SDS011;28756;49.064;9.290;2023-04-23T09:30:16;1.02;;;0.90;;
43152;SDS011;28756;49.064;9.290;2023-04-23T09:32:44;1.17;;;1.05;;
43152;SDS011;28756;49.064;9.290;2023-04-23T09:35:14;1.90;;;1.08;;
43152;SDS011;28756;49.064;9.290;2023-04-23T09:37:42;2.58;;;1.17;;
43152;SDS011;28756;49.064;9.290;2023-04-23T09:40:13;3.05;;;1.10;;
43152;SDS011;28756;49.064;9.290;2023-04-23T09:42:46;1.45;;;1.20;;
43152;SDS011;28756;49.064;9.290;2023-04-23T09:45:19;1.08;;;0.75;;
43152;SDS011;28756;49.064;9.290;2023-04-23T09:47:52;1.67;;;1.20;;
43152;SDS011;28756;49.064;9.290;2023-04-23T09:50:33;1.20;;;0.98;;
43152;SDS011;28756;49.064;9.290;2023-04-23T09:53:03;2.05;;;1.20;;
43152;SDS011;28756;49.064;9.290;2023-04-23T09:55:34;1.58;;;1.02;;
43152;SDS011;28756;49.064;9.290;2023-04-23T09:58:03;1.70;;;1.10;;
43152;SDS011;28756;49.064;9.290;2023-04-23T10:00:34;1.65;;;1.02;;
43152;SDS011;28756;49.064;9.290;2023-04-23T10:03:02;1.33;;;1.00;;
43152;SDS011;28756;49.064;9.290;2023-04-23T10:05:31;1.30;;;1.02;;
43152;SDS011;28756;49.064;9.290;2023-04-23T10:08:01;1.38;;;1.10;;
43152;SDS011;28756;49.064;9.290;2023-04-23T10:10:28;1.48;;;1.10;;
43152;SDS011;28756;49.064;9.290;2023-04-23T10:12:54;1.10;;;1.00;;
43152;SDS011;28756;49.064;9.290;2023-04-23T10:15:24;1.02;;;0.90;;
43152;SDS011;28756;49.064;9.290;2023-04-23T10:17:51;1.50;;;1.20;;
43152;SDS011;28756;49.064;9.290;2023-04-23T10:20:19;1.70;;;0.90;;
43152;SDS011;28756;49.064;9.290;2023-04-23T10:22:47;1.23;;;1.10;;
43152;SDS011;28756;49.064;9.290;2023-04-23T10:25:13;1.25;;;1.10;;
43152;SDS011;28756;49.064;9.290;2023-04-23T10:27:41;2.08;;;1.10;;
43152;SDS011;28756;49.064;9.290;2023-04-23T10:30:10;1.10;;;0.90;;
43152;SDS011;28756;49.064;9.290;2023-04-23T10:32:37;1.88;;;1.05;;
43152;SDS011;28756;49.064;9.290;2023-04-23T10:35:04;8.68;;;1.30;;
43152;SDS011;28756;49.064;9.290;2023-04-23T10:37:33;2.03;;;1.10;;
43152;SDS011;28756;49.064;9.290;2023-04-23T10:40:08;1.95;;;1.00;;
43152;SDS011;28756;49.064;9.290;2023-04-23T10:42:38;2.75;;;1.20;;
43152;SDS011;28756;49.064;9.290;2023-04-23T10:45:15;1.10;;;1.00;;
43152;SDS011;28756;49.064;9.290;2023-04-23T10:47:42;1.60;;;0.93;;
43152;SDS011;28756;49.064;9.290;2023-04-23T10:50:19;2.50;;;0.70;;
43152;SDS011;28756;49.064;9.290;2023-04-23T10:52:54;1.25;;;0.90;;
43152;SDS011;28756;49.064;9.290;2023-04-23T10:55:30;1.58;;;0.70;;
43152;SDS011;28756;49.064;9.290;2023-04-23T10:57:57;1.45;;;0.80;;
43152;SDS011;28756;49.064;9.290;2023-04-23T11:00:27;1.60;;;0.90;;
43152;SDS011;28756;49.064;9.290;2023-04-23T11:06:06;2.70;;;2.50;;
43152;SDS011;28756;49.064;9.290;2023-04-23T11:08:37;1.40;;;1.30;;
43152;SDS011;28756;49.064;9.290;2023-04-23T11:11:15;1.38;;;1.00;;
43152;SDS011;28756;49.064;9.290;2023-04-23T11:13:49;0.90;;;0.80;;
43152;SDS011;28756;49.064;9.290;2023-04-23T11:16:20;1.50;;;1.10;;
43152;SDS011;28756;49.064;9.290;2023-04-23T11:18:54;1.00;;;0.73;;
43152;SDS011;28756;49.064;9.290;2023-04-23T11:21:54;0.85;;;0.70;;
43152;SDS011;28756;49.064;9.290;2023-04-23T11:24:34;1.15;;;0.90;;
43152;SDS011;28756;49.064;9.290;2023-04-23T11:27:06;2.05;;;0.70;;
43152;SDS011;28756;49.064;9.290;2023-04-23T11:29:44;0.90;;;0.80;;
43152;SDS011;28756;49.064;9.290;2023-04-23T11:32:11;3.22;;;0.80;;
43152;SDS011;28756;49.064;9.290;2023-04-23T11:34:41;2.15;;;0.88;;
43152;SDS011;28756;49.064;9.290;2023-04-23T11:37:10;1.15;;;0.70;;
43152;SDS011;28756;49.064;9.290;2023-04-23T11:39:37;1.70;;;1.00;;
43152;SDS011;28756;49.064;9.290;2023-04-23T11:42:11;1.00;;;0.70;;
43152;SDS011;28756;49.064;9.290;2023-04-23T11:44:38;1.13;;;0.70;;
43152;SDS011;28756;49.064;9.290;2023-04-23T11:47:09;1.15;;;0.65;;
43152;SDS011;28756;49.064;9.290;2023-04-23T11:49:37;0.52;;;0.50;;
43152;SDS011;28756;49.064;9.290;2023-04-23T11:52:08;0.70;;;0.70;;
43152;SDS011;28756;49.064;9.290;2023-04-23T11:54:35;0.82;;;0.70;;
43152;SDS011;28756;49.064;9.290;2023-04-23T11:57:01;0.88;;;0.60;;
43152;SDS011;28756;49.064;9.290;2023-04-23T11:59:28;1.27;;;0.77;;
43152;SDS011;28756;49.064;9.290;2023-04-23T12:01:58;1.40;;;0.77;;
43152;SDS011;28756;49.064;9.290;2023-04-23T12:04:28;1.17;;;0.68;;
43152;SDS011;28756;49.064;9.290;2023-04-23T12:06:55;0.60;;;0.50;;
43152;SDS011;28756;49.064;9.290;2023-04-23T12:09:23;0.73;;;0.60;;
43152;SDS011;28756;49.064;9.290;2023-04-23T12:11:52;0.60;;;0.60;;
43152;SDS011;28756;49.064;9.290;2023-04-23T12:14:19;1.00;;;0.50;;
43152;SDS011;28756;49.064;9.290;2023-04-23T12:16:55;1.38;;;0.50;;
43152;SDS011;28756;49.064;9.290;2023-04-23T12:19:26;0.65;;;0.40;;
43152;SDS011;28756;49.064;9.290;2023-04-23T12:21:55;0.65;;;0.50;;
43152;SDS011;28756;49.064;9.290;2023-04-23T12:24:24;0.70;;;0.50;;
43152;SDS011;28756;49.064;9.290;2023-04-23T12:27:12;0.55;;;0.50;;
43152;SDS011;28756;49.064;9.290;2023-04-23T12:29:39;0.98;;;0.50;;
43152;SDS011;28756;49.064;9.290;2023-04-23T12:32:08;1.02;;;0.50;;
43152;SDS011;28756;49.064;9.290;2023-04-23T12:34:35;0.60;;;0.43;;
43152;SDS011;28756;49.064;9.290;2023-04-23T12:37:04;0.57;;;0.50;;
43152;SDS011;28756;49.064;9.290;2023-04-23T12:39:34;0.98;;;0.50;;
43152;SDS011;28756;49.064;9.290;2023-04-23T12:42:09;1.08;;;0.70;;
43152;SDS011;28756;49.064;9.290;2023-04-23T12:44:38;0.93;;;0.70;;
43152;SDS011;28756;49.064;9.290;2023-04-23T12:47:07;0.60;;;0.40;;
43152;SDS011;28756;49.064;9.290;2023-04-23T12:49:39;0.70;;;0.60;;
43152;SDS011;28756;49.064;9.290;2023-04-23T12:52:07;0.40;;;0.40;;
43152;SDS011;28756;49.064;9.290;2023-04-23T12:54:33;0.40;;;0.40;;
43152;SDS011;28756;49.064;9.290;2023-04-23T12:57:05;0.60;;;0.50;;
43152;SDS011;28756;49.064;9.290;2023-04-23T12:59:35;0.95;;;0.40;;
43152;SDS011;28756;49.064;9.290;2023-04-23T13:02:00;0.50;;;0.50;;
43152;SDS011;28756;49.064;9.290;2023-04-23T13:04:28;0.88;;;0.60;;
43152;SDS011;28756;49.064;9.290;2023-04-23T13:06:54;0.93;;;0.47;;
43152;SDS011;28756;49.064;9.290;2023-04-23T13:09:21;0.65;;;0.50;;
43152;SDS011;28756;49.064;9.290;2023-04-23T13:11:48;0.40;;;0.40;;
43152;SDS011;28756;49.064;9.290;2023-04-23T13:14:15;2.10;;;0.50;;
43152;SDS011;28756;49.064;9.290;2023-04-23T13:16:41;0.57;;;0.43;;
43152;SDS011;28756;49.064;9.290;2023-04-23T13:19:07;0.85;;;0.50;;
43152;SDS011;28756;49.064;9.290;2023-04-23T13:21:33;0.63;;;0.40;;
43152;SDS011;28756;49.064;9.290;2023-04-23T13:23:59;0.30;;;0.30;;
43152;SDS011;28756;49.064;9.290;2023-04-23T13:26:25;0.30;;;0.30;;
43152;SDS011;28756;49.064;9.290;2023-04-23T13:28:59;0.60;;;0.47;;
43152;SDS011;28756;49.064;9.290;2023-04-23T13:31:25;0.50;;;0.40;;
43152;SDS011;28756;49.064;9.290;2023-04-23T13:33:51;0.90;;;0.40;;
43152;SDS011;28756;49.064;9.290;2023-04-23T13:36:18;1.80;;;0.50;;
43152;SDS011;28756;49.064;9.290;2023-04-23T13:38:45;0.57;;;0.40;;
43152;SDS011;28756;49.064;9.290;2023-04-23T13:41:11;0.90;;;0.52;;
43152;SDS011;28756;49.064;9.290;2023-04-23T13:43:37;1.13;;;0.40;;
43152;SDS011;28756;49.064;9.290;2023-04-23T13:46:03;1.48;;;0.52;;
43152;SDS011;28756;49.064;9.290;2023-04-23T13:48:29;0.70;;;0.50;;
43152;SDS011;28756;49.064;9.290;2023-04-23T13:50:59;0.80;;;0.45;;
43152;SDS011;28756;49.064;9.290;2023-04-23T13:53:26;0.82;;;0.40;;
43152;SDS011;28756;49.064;9.290;2023-04-23T13:55:52;0.50;;;0.40;;
43152;SDS011;28756;49.064;9.290;2023-04-23T13:58:20;0.85;;;0.50;;
43152;SDS011;28756;49.064;9.290;2023-04-23T14:00:46;0.50;;;0.47;;
43152;SDS011;28756;49.064;9.290;2023-04-23T14:03:12;0.60;;;0.45;;
43152;SDS011;28756;49.064;9.290;2023-04-23T14:05:38;1.10;;;0.63;;
43152;SDS011;28756;49.064;9.290;2023-04-23T14:08:04;0.95;;;0.50;;
43152;SDS011;28756;49.064;9.290;2023-04-23T14:10:30;0.52;;;0.50;;
43152;SDS011;28756;49.064;9.290;2023-04-23T14:12:56;0.45;;;0.40;;
43152;SDS011;28756;49.064;9.290;2023-04-23T14:15:22;0.47;;;0.47;;
43152;SDS011;28756;49.064;9.290;2023-04-23T14:17:47;0.40;;;0.30;;
43152;SDS011;28756;49.064;9.290;2023-04-23T14:20:14;1.65;;;0.40;;
43152;SDS011;28756;49.064;9.290;2023-04-23T14:22:40;0.75;;;0.50;;
43152;SDS011;28756;49.064;9.290;2023-04-23T14:25:08;1.35;;;0.50;;
43152;SDS011;28756;49.064;9.290;2023-04-23T14:27:40;0.85;;;0.43;;
43152;SDS011;28756;49.064;9.290;2023-04-23T14:30:14;0.70;;;0.50;;
43152;SDS011;28756;49.064;9.290;2023-04-23T14:32:45;0.50;;;0.40;;
43152;SDS011;28756;49.064;9.290;2023-04-23T14:35:12;1.00;;;0.38;;
43152;SDS011;28756;49.064;9.290;2023-04-23T14:37:39;0.60;;;0.50;;
43152;SDS011;28756;49.064;9.290;2023-04-23T14:40:08;0.50;;;0.50;;
43152;SDS011;28756;49.064;9.290;2023-04-23T14:42:44;0.70;;;0.50;;
43152;SDS011;28756;49.064;9.290;2023-04-23T14:45:11;0.88;;;0.40;;
43152;SDS011;28756;49.064;9.290;2023-04-23T14:47:38;1.65;;;0.50;;
43152;SDS011;28756;49.064;9.290;2023-04-23T14:50:06;1.73;;;0.50;;
43152;SDS011;28756;49.064;9.290;2023-04-23T14:52:32;1.45;;;0.80;;
43152;SDS011;28756;49.064;9.290;2023-04-23T14:54:58;1.20;;;0.65;;